Portosanto — EAPR — position and weather

sailwx.info

Track history (hours):
 
Tides and Currents Weather Stations Pressure Air Temp Water Temp Dewpoint Dewpoint Depression Visibility Wind Speed Wind Dir Waves Ship Positions

Portosanto

Last reported at 2018-Feb-23 22:30 UTC. Time now 2018-Feb-23 22:32 UTC.
Position N 39°04' W 009°51'.

Length 27 m; draft 3 m.

Type: Fishing. MMSI: 225353000.

Date/timePositionNaut miles runAvg speedWind from/ knotsBaromVisibWave heightAir tempDewpointWater temp
2018-Feb-23 22:30N 39°04' W 009°51'2 3.0
2018-Feb-23 22:00N 39°03' W 009°53'2 3.1
2018-Feb-23 21:30N 39°02' W 009°54'2 3.1
2018-Feb-23 21:00N 39°01' W 009°56'2 3.3
2018-Feb-23 20:30N 39°02' W 009°58'2 4.0
2018-Feb-23 20:00N 39°02' W 010°01'0 0.6
2018-Feb-23 19:30N 39°02' W 010°01'2 3.1
2018-Feb-23 18:56N 39°03' W 010°03'1 3.1
2018-Feb-23 18:30N 39°04' W 010°04'2 3.1
2018-Feb-23 17:52N 39°05' W 010°07'1 2.8
2018-Feb-23 17:30N 39°06' W 010°07'1 2.7
2018-Feb-23 17:00N 39°07' W 010°05'1 2.9
2018-Feb-23 16:30N 39°07' W 010°04'2 3.1
2018-Feb-23 16:00N 39°05' W 010°03'2 3.1
2018-Feb-23 15:30N 39°04' W 010°02'1 1.5
2018-Feb-23 15:00N 39°04' W 010°01'1 1.4
2018-Feb-23 14:29N 39°04' W 009°60'1 3.0
2018-Feb-23 14:00N 39°03' W 009°58'2 3.1
2018-Feb-23 13:30N 39°02' W 009°57'2 3.1
2018-Feb-23 12:58N 39°00' W 009°57'1 3.0
2018-Feb-23 12:30N 38°59' W 009°56'2 3.0
2018-Feb-23 12:00N 38°58' W 009°55'1 3.0
2018-Feb-23 11:30N 38°56' W 009°56'2 3.0
2018-Feb-23 11:00N 38°56' W 009°58'1 3.0
2018-Feb-23 10:30N 38°55' W 010°00'2 3.2
2018-Feb-23 10:00N 38°54' W 010°02'2 4.4
2018-Feb-23 09:29N 38°54' W 009°59'2 2.9
2018-Feb-23 08:50N 38°56' W 009°57'1 3.2
2018-Feb-23 08:30N 38°57' W 009°57'2 3.2
2018-Feb-23 08:00N 38°58' W 009°57'2 3.0
2018-Feb-23 07:30N 38°59' W 009°58'2 3.2
2018-Feb-23 07:00N 39°01' W 009°60'1 3.0
2018-Feb-23 06:30N 39°01' W 010°01'1 2.9
2018-Feb-23 06:00N 39°00' W 010°03'2 3.1
2018-Feb-23 05:30N 38°59' W 010°05'2 3.1
2018-Feb-23 05:00N 38°58' W 010°06'2 4.8
2018-Feb-23 04:30N 38°56' W 010°08'2 0.5
2018-Feb-23 00:55N 38°55' W 010°10'1 2.3
2018-Feb-23 00:17N 38°55' W 010°12'7 2.9
2018-Feb-22 21:41N 38°55' W 010°02'1 3.2
2018-Feb-22 21:19N 38°55' W 010°01'1 1.9
2018-Feb-22 21:00N 38°56' W 010°00'2 3.3
2018-Feb-22 20:30N 38°57' W 009°59'2 3.2
2018-Feb-22 20:00N 38°59' W 009°59'2 3.2
2018-Feb-22 19:30N 39°00' W 009°59'2 3.2
2018-Feb-22 19:00N 39°02' W 010°00'2 3.2
2018-Feb-22 18:30N 39°03' W 010°01'2 3.1
2018-Feb-22 18:00N 39°04' W 010°03'2 3.1
2018-Feb-22 17:30N 39°06' W 010°04'2 3.1
2018-Feb-22 17:00N 39°07' W 010°05'2 3.6
2018-Feb-22 16:29N 39°08' W 010°07'1 1.7
2018-Feb-22 15:40N 39°07' W 010°08'2 3.0
2018-Feb-22 15:08N 39°06' W 010°06'1 3.1
2018-Feb-22 14:48N 39°05' W 010°05'1 3.0
2018-Feb-22 14:29N 39°04' W 010°04'2 2.9
2018-Feb-22 13:55N 39°03' W 010°03'2 3.0
2018-Feb-22 13:21N 39°01' W 010°02'1 3.1
2018-Feb-22 12:58N 39°01' W 010°01'1 2.9
2018-Feb-22 12:30N 38°60' W 009°60'2 3.2
2018-Feb-22 12:00N 38°58' W 009°59'2 3.3
2018-Feb-22 11:30N 38°57' W 009°60'2 3.9
2018-Feb-22 10:56N 38°55' W 010°01'1 1.7
2018-Feb-22 10:24N 38°55' W 010°03'2 2.8
2018-Feb-22 09:40N 38°55' W 010°00'1 3.2
2018-Feb-22 09:28N 38°56' W 009°59'2 3.2
2018-Feb-22 08:59N 38°56' W 009°58'2 3.1
2018-Feb-22 08:28N 38°58' W 009°57'1 3.1
2018-Feb-22 08:00N 38°59' W 009°57'2 3.1
2018-Feb-22 07:30N 39°01' W 009°56'2 3.2
2018-Feb-22 07:00N 39°02' W 009°55'2 3.2
2018-Feb-22 06:30N 39°03' W 009°53'2 3.2
2018-Feb-22 06:00N 39°04' W 009°52'2 3.7
2018-Feb-22 05:30N 39°06' W 009°51'0 0.5
2018-Feb-22 05:00N 39°06' W 009°51'1 2.9
2018-Feb-22 04:30N 39°08' W 009°51'2 3.0
2018-Feb-22 03:58N 39°09' W 009°51'1 3.1
2018-Feb-22 03:30N 39°11' W 009°51'2 3.1
2018-Feb-22 02:57N 39°12' W 009°51'1 3.1
2018-Feb-22 02:30N 39°14' W 009°51'2 3.1
2018-Feb-22 02:00N 39°15' W 009°51'2 3.2
2018-Feb-22 01:30N 39°17' W 009°50'2 3.2
2018-Feb-22 01:00N 39°18' W 009°50'2 3.2
2018-Feb-22 00:30N 39°20' W 009°49'2 3.9
2018-Feb-22 00:00N 39°22' W 009°48'  
Track history (hours):
 
Tides and Currents Weather Stations Pressure Air Temp Water Temp Dewpoint Dewpoint Depression Visibility Wind Speed Wind Dir Waves Ship Positions

Portosanto

Last reported at 2018-Feb-23 22:30 UTC. Time now 2018-Feb-23 22:32 UTC.
Position N 39°04' W 009°51'.

Length 27 m; draft 3 m.

Type: Fishing. MMSI: 225353000.

Date/timePositionNaut miles runAvg speedWind from/ knotsBaromVisibWave heightAir tempDewpointWater temp
2018-Feb-23 22:30N 39°04' W 009°51'2 3.0
2018-Feb-23 22:00N 39°03' W 009°53'2 3.1
2018-Feb-23 21:30N 39°02' W 009°54'2 3.1
2018-Feb-23 21:00N 39°01' W 009°56'2 3.3
2018-Feb-23 20:30N 39°02' W 009°58'2 4.0
2018-Feb-23 20:00N 39°02' W 010°01'0 0.6
2018-Feb-23 19:30N 39°02' W 010°01'2 3.1
2018-Feb-23 18:56N 39°03' W 010°03'1 3.1
2018-Feb-23 18:30N 39°04' W 010°04'2 3.1
2018-Feb-23 17:52N 39°05' W 010°07'1 2.8
2018-Feb-23 17:30N 39°06' W 010°07'1 2.7
2018-Feb-23 17:00N 39°07' W 010°05'1 2.9
2018-Feb-23 16:30N 39°07' W 010°04'2 3.1
2018-Feb-23 16:00N 39°05' W 010°03'2 3.1
2018-Feb-23 15:30N 39°04' W 010°02'1 1.5
2018-Feb-23 15:00N 39°04' W 010°01'1 1.4
2018-Feb-23 14:29N 39°04' W 009°60'1 3.0
2018-Feb-23 14:00N 39°03' W 009°58'2 3.1
2018-Feb-23 13:30N 39°02' W 009°57'2 3.1
2018-Feb-23 12:58N 39°00' W 009°57'1 3.0
2018-Feb-23 12:30N 38°59' W 009°56'2 3.0
2018-Feb-23 12:00N 38°58' W 009°55'1 3.0
2018-Feb-23 11:30N 38°56' W 009°56'2 3.0
2018-Feb-23 11:00N 38°56' W 009°58'1 3.0
2018-Feb-23 10:30N 38°55' W 010°00'2 3.2
2018-Feb-23 10:00N 38°54' W 010°02'2 4.4
2018-Feb-23 09:29N 38°54' W 009°59'2 2.9
2018-Feb-23 08:50N 38°56' W 009°57'1 3.2
2018-Feb-23 08:30N 38°57' W 009°57'2 3.2
2018-Feb-23 08:00N 38°58' W 009°57'2 3.0
2018-Feb-23 07:30N 38°59' W 009°58'2 3.2
2018-Feb-23 07:00N 39°01' W 009°60'1 3.0
2018-Feb-23 06:30N 39°01' W 010°01'1 2.9
2018-Feb-23 06:00N 39°00' W 010°03'2 3.1
2018-Feb-23 05:30N 38°59' W 010°05'2 3.1
2018-Feb-23 05:00N 38°58' W 010°06'2 4.8
2018-Feb-23 04:30N 38°56' W 010°08'2 0.5
2018-Feb-23 00:55N 38°55' W 010°10'1 2.3
2018-Feb-23 00:17N 38°55' W 010°12'7 2.9
2018-Feb-22 21:41N 38°55' W 010°02'1 3.2
2018-Feb-22 21:19N 38°55' W 010°01'1 1.9
2018-Feb-22 21:00N 38°56' W 010°00'2 3.3
2018-Feb-22 20:30N 38°57' W 009°59'2 3.2
2018-Feb-22 20:00N 38°59' W 009°59'2 3.2
2018-Feb-22 19:30N 39°00' W 009°59'2 3.2
2018-Feb-22 19:00N 39°02' W 010°00'2 3.2
2018-Feb-22 18:30N 39°03' W 010°01'2 3.1
2018-Feb-22 18:00N 39°04' W 010°03'2 3.1
2018-Feb-22 17:30N 39°06' W 010°04'2 3.1
2018-Feb-22 17:00N 39°07' W 010°05'2 3.6
2018-Feb-22 16:29N 39°08' W 010°07'1 1.7
2018-Feb-22 15:40N 39°07' W 010°08'2 3.0
2018-Feb-22 15:08N 39°06' W 010°06'1 3.1
2018-Feb-22 14:48N 39°05' W 010°05'1 3.0
2018-Feb-22 14:29N 39°04' W 010°04'2 2.9
2018-Feb-22 13:55N 39°03' W 010°03'2 3.0
2018-Feb-22 13:21N 39°01' W 010°02'1 3.1
2018-Feb-22 12:58N 39°01' W 010°01'1 2.9
2018-Feb-22 12:30N 38°60' W 009°60'2 3.2
2018-Feb-22 12:00N 38°58' W 009°59'2 3.3
2018-Feb-22 11:30N 38°57' W 009°60'2 3.9
2018-Feb-22 10:56N 38°55' W 010°01'1 1.7
2018-Feb-22 10:24N 38°55' W 010°03'2 2.8
2018-Feb-22 09:40N 38°55' W 010°00'1 3.2
2018-Feb-22 09:28N 38°56' W 009°59'2 3.2
2018-Feb-22 08:59N 38°56' W 009°58'2 3.1
2018-Feb-22 08:28N 38°58' W 009°57'1 3.1
2018-Feb-22 08:00N 38°59' W 009°57'2 3.1
2018-Feb-22 07:30N 39°01' W 009°56'2 3.2
2018-Feb-22 07:00N 39°02' W 009°55'2 3.2
2018-Feb-22 06:30N 39°03' W 009°53'2 3.2
2018-Feb-22 06:00N 39°04' W 009°52'2 3.7
2018-Feb-22 05:30N 39°06' W 009°51'0 0.5
2018-Feb-22 05:00N 39°06' W 009°51'1 2.9
2018-Feb-22 04:30N 39°08' W 009°51'2 3.0
2018-Feb-22 03:58N 39°09' W 009°51'1 3.1
2018-Feb-22 03:30N 39°11' W 009°51'2 3.1
2018-Feb-22 02:57N 39°12' W 009°51'1 3.1
2018-Feb-22 02:30N 39°14' W 009°51'2 3.1
2018-Feb-22 02:00N 39°15' W 009°51'2 3.2
2018-Feb-22 01:30N 39°17' W 009°50'2 3.2
2018-Feb-22 01:00N 39°18' W 009°50'2 3.2
2018-Feb-22 00:30N 39°20' W 009°49'2 3.9
2018-Feb-22 00:00N 39°22' W 009°48'  

Dump ship's entire track history